Tormentas Desde: 21-05-2018 18:00 Hasta: 19:59 Advertencia de: Tormentas Nivel: Amarillo info button

Nearby METAR Reports

 

LEZL - Sevilla, Spain
Distance from station: ESE 25km
Actualizado: 21/05/2018 22:00
Céu Limpo
Céu Limpo
 Vento de SSW
Vento: SSW 13 km/h
Temperatura: 19°C
Ponto de Orvalho: 15°C
Humidade: 78%
Barómetro: 1013 hPa
Resumo: Céu Limpo
Visibility: greater than 10 km
2018/05/21 20:00 LEZL 212000Z 21007KT 160V240 CAVOK 19/15 Q1013 NOSIG
LEMO - Morón, Spain
Distance from station: SE 65km
Actualizado: 21/05/2018 22:00
Céu Limpo
Céu Limpo
 Vento de SW
Vento: SW 13 km/h
Temperatura: 17°C
Ponto de Orvalho: 14°C
Humidade: 83%
Barómetro: 1013 hPa
Resumo: Céu Limpo
Visibility: greater than 10 km
2018/05/21 20:00 LEMO 212000Z 23007KT 200V260 CAVOK 17/14 Q1013 NOSIG
LEJR - Jeréz, Spain
Distance from station: S 87km
Actualizado: 21/05/2018 22:30
Muito nublado
Muito nublado
 Vento de SSW
Vento: SSW 13 km/h
Temperatura: 17°C
Ponto de Orvalho: 13°C
Humidade: 77%
Barómetro: 1014 hPa
Clouds: Muito nublado
Visibility: 10 km
Cloud details: Muito nublado 549 m
2018/05/21 20:30 LEJR 212030Z 21007KT 9999 BKN018 17/13 Q1014
 
LERT - Rota, Spain
Distance from station: S 101km
Actualizado: 21/05/2018 22:00
Muito nublado
Muito nublado
 Vento de WSW
Vento: WSW 13 km/h
Temperatura: 17°C
Ponto de Orvalho: 13°C
Humidade: 77%
Barómetro: 1014 hPa
Clouds: Muito nublado
Visibility: 10 km
Cloud details: Muito nublado 518 m
2018/05/21 20:00 LERT 212000Z 24007KT 200V270 9999 BKN017 17/13 Q1014 NOSIG
LEMG - Málaga, Spain
Distance from station: ESE 178km
Actualizado: 21/05/2018 22:00
Céu Limpo
Céu Limpo
 Vento de varies
Vento: varies 4 km/h
Temperatura: 18°C
Ponto de Orvalho: 14°C
Humidade: 78%
Barómetro: 1013 hPa
Resumo: Céu Limpo
Visibility: greater than 10 km
2018/05/21 20:00 LEMG 212000Z VRB02KT CAVOK 18/14 Q1013 NOSIG
LEBA - Córdoba, Spain
Distance from station: ENE 123km
Actualizado: 21/05/2018 22:00
Céu Limpo
Céu Limpo
 Vento de W
Vento: W 6 km/h
Temperatura: 18°C
Ponto de Orvalho: 13°C
Humidade: 73%
Barómetro: 1013 hPa
Clouds: Céu Limpo
Visibility: 10 km
2018/05/21 20:00 LEBA 212000Z AUTO 26003KT 170V320 9999 NCD 18/13 Q1013
 
LEGR - Granada, Spain
Distance from station: E 215km
Actualizado: 21/05/2018 22:00
Few Clouds
Few Clouds
 Vento de varies
Vento: varies 2 km/h
Temperatura: 15°C
Ponto de Orvalho: 11°C
Humidade: 77%
Barómetro: 1014 hPa
Clouds: Few Clouds
Visibility: 10 km
Cloud details: Few Clouds 1524 m
2018/05/21 20:00 LEGR 212000Z VRB01KT 9999 FEW050 15/11 Q1014
LEAM - Almería, Spain
Distance from station: E 344km
Actualizado: 21/05/2018 22:00
Céu Limpo
Céu Limpo
 Vento de SW
Vento: SW 9 km/h
Temperatura: 19°C
Ponto de Orvalho: 15°C
Humidade: 78%
Barómetro: 1012 hPa
Resumo: Céu Limpo
Visibility: greater than 10 km
2018/05/21 20:00 LEAM 212000Z 23005KT 190V280 CAVOK 19/15 Q1012
GCLP - Las Palmas/Aeropuerto, Spain
Distance from station: SO 1410km
Actualizado: 21/05/2018 22:00
Parcialmente nublado
Parcialmente nublado
 Vento de N
Vento: N 31 km/h
Temperatura: 19°C
Ponto de Orvalho: 13°C
Humidade: 68%
Barómetro: 1016 hPa
Clouds: Parcialmente nublado
Visibility: 10 km
Cloud details: Few Clouds 610 m
Parcialmente nublado 1372 m
2018/05/21 20:00 GCLP 212000Z 01017KT 9999 FEW020 SCT045 19/13 Q1016 NOSIG
 
LEMD - Madrid/Barajas, Spain
Distance from station: NNE 402km
Actualizado: 21/05/2018 22:00
Chuva fraca, Showers, Parcialmente nublado
Chuva fraca, Showers, Parcialmente nublado
 Vento de SE
Vento: SE 19 km/h
Temperatura: 16°C
Ponto de Orvalho: 13°C
Humidade: 83%
Barómetro: 1012 hPa
Resumo: Chuva fraca, Showers
Clouds: Parcialmente nublado
Visibility: 10 km
Cloud details: Parcialmente nublado 1372 m
Parcialmente nublado 1981 m
2018/05/21 20:00 LEMD 212000Z 13010KT 9999 -SHRA SCT045CB SCT065 16/13 Q1012 WS R32L WS R32R WS R36L WS R36R R88/29//95 BECMG NSW
LEVD - Valladolid, Spain
Distance from station: N 492km
Actualizado: 21/05/2018 21:30
Nearby showers, Parcialmente nublado
Nearby showers, Parcialmente nublado
 Vento de N
Vento: N 4 km/h
Temperatura: 18°C
Ponto de Orvalho: 10°C
Humidade: 60%
Barómetro: 1012 hPa
Resumo: Nearby Showers
Clouds: Parcialmente nublado
Visibility: 10 km
Cloud details: Parcialmente nublado 1829 m
2018/05/21 19:30 LEVD 211930Z 36002KT 9999 VCSH SCT060TCU 18/10 Q1012
LEBL - Barcelona, Spain
Distance from station: NE 816km
Actualizado: 21/05/2018 22:00
Few Clouds
Few Clouds
 Vento de WSW
Vento: WSW 7 km/h
Temperatura: 18°C
Ponto de Orvalho: 14°C
Humidade: 78%
Barómetro: 1012 hPa
Clouds: Few Clouds
Visibility: 10 km
Cloud details: Few Clouds 914 m
2018/05/21 20:00 LEBL 212000Z 24004KT 210V300 9999 FEW030 18/14 Q1012 NOSIG